createdAt,value
2023-03-16T00:00:54.290Z,-0.01
2023-03-16T00:03:31.825Z,-0.01
2023-03-16T00:06:13.637Z,-0.01
2023-03-16T00:08:47.170Z,-0.01
2023-03-16T00:11:20.086Z,-0.02
2023-03-16T00:13:52.500Z,-0.00
2023-03-16T00:16:26.268Z,0.02
2023-03-16T00:18:59.783Z,0.03
2023-03-16T00:21:32.854Z,0.03
2023-03-16T00:24:06.397Z,0.04
2023-03-16T00:26:39.114Z,0.03
2023-03-16T00:29:12.212Z,0.02
2023-03-16T00:31:46.419Z,0.02
2023-03-16T00:34:19.504Z,-0.00
2023-03-16T00:36:52.658Z,-0.01
2023-03-16T00:39:26.509Z,-0.02
2023-03-16T00:41:59.372Z,-0.02
2023-03-16T00:44:33.080Z,-0.02
2023-03-16T00:47:09.548Z,-0.03
2023-03-16T00:49:43.333Z,-0.04
2023-03-16T00:52:18.661Z,-0.03
2023-03-16T00:54:53.258Z,-0.02
2023-03-16T00:57:28.316Z,-0.02
2023-03-16T01:00:06.014Z,-0.02
2023-03-16T01:02:39.133Z,-0.03
2023-03-16T01:05:13.858Z,-0.02
2023-03-16T01:07:48.044Z,0.00
2023-03-16T01:10:21.162Z,0.01
2023-03-16T01:12:57.068Z,0.03
2023-03-16T01:15:30.167Z,0.03
2023-03-16T01:18:03.640Z,0.04
2023-03-16T01:20:36.716Z,0.03
2023-03-16T01:23:09.718Z,0.03
2023-03-16T01:25:42.937Z,0.03
2023-03-16T01:28:15.931Z,0.01
2023-03-16T01:30:50.114Z,0.00
2023-03-16T01:33:24.044Z,-0.01
2023-03-16T01:36:09.395Z,-0.03
2023-03-16T01:38:42.712Z,-0.04
2023-03-16T01:41:15.966Z,-0.06
2023-03-16T01:43:49.105Z,-0.08
2023-03-16T01:46:25.124Z,-0.10
2023-03-16T01:49:09.179Z,-0.11
2023-03-16T01:51:45.814Z,-0.12
2023-03-16T01:54:26.210Z,-0.14
2023-03-16T01:57:08.982Z,-0.16
2023-03-16T01:59:47.583Z,-0.17
2023-03-16T02:02:24.527Z,-0.18
2023-03-16T02:05:04.651Z,-0.19
2023-03-16T02:07:43.800Z,-0.20
2023-03-16T02:10:20.028Z,-0.21
2023-03-16T02:12:53.389Z,-0.23
2023-03-16T02:15:27.706Z,-0.25
2023-03-16T02:18:02.289Z,-0.26
2023-03-16T02:20:45.371Z,-0.25
2023-03-16T02:23:22.568Z,-0.26
2023-03-16T02:26:03.995Z,-0.27
2023-03-16T02:28:48.982Z,-0.29
2023-03-16T02:31:23.845Z,-0.30
2023-03-16T02:33:59.019Z,-0.31
2023-03-16T02:36:35.330Z,-0.30
2023-03-16T02:39:08.688Z,-0.30
2023-03-16T02:41:42.378Z,-0.29
2023-03-16T02:44:20.100Z,-0.28
2023-03-16T02:46:54.916Z,-0.27
2023-03-16T02:49:32.218Z,-0.28
2023-03-16T02:52:05.220Z,-0.28
2023-03-16T02:54:38.656Z,-0.30
2023-03-16T02:57:12.072Z,-0.32
2023-03-16T02:59:48.483Z,-0.35
2023-03-16T03:02:21.424Z,-0.37
2023-03-16T03:04:54.936Z,-0.38
2023-03-16T03:07:32.519Z,-0.40
2023-03-16T03:10:06.452Z,-0.41
2023-03-16T03:12:39.621Z,-0.42
2023-03-16T03:15:13.679Z,-0.43
2023-03-16T03:17:47.561Z,-0.45
2023-03-16T03:20:20.652Z,-0.48
2023-03-16T03:22:54.604Z,-0.50
2023-03-16T03:25:27.585Z,-0.52
2023-03-16T03:28:01.365Z,-0.53
2023-03-16T03:30:35.312Z,-0.53
2023-03-16T03:33:09.899Z,-0.55
2023-03-16T03:35:44.526Z,-0.58
2023-03-16T03:38:19.169Z,-0.61
2023-03-16T03:40:53.040Z,-0.63
2023-03-16T03:43:26.787Z,-0.65
2023-03-16T03:46:03.231Z,-0.67
2023-03-16T03:48:36.271Z,-0.71
2023-03-16T03:51:09.749Z,-0.74
2023-03-16T03:53:43.225Z,-0.76
2023-03-16T03:56:16.275Z,-0.78
2023-03-16T03:58:49.776Z,-0.81
2023-03-16T04:01:22.054Z,-0.83
2023-03-16T04:03:55.715Z,-0.85
2023-03-16T04:06:28.602Z,-0.87
2023-03-16T04:09:01.818Z,-0.90
2023-03-16T04:11:35.985Z,-0.92
2023-03-16T04:14:09.360Z,-0.94
2023-03-16T04:16:44.804Z,-0.96
2023-03-16T04:19:18.073Z,-1.00
2023-03-16T04:21:51.652Z,-1.02
2023-03-16T04:24:23.916Z,-1.05
2023-03-16T04:26:56.798Z,-1.08
2023-03-16T04:29:29.560Z,-1.11
2023-03-16T04:32:02.573Z,-1.13
2023-03-16T04:34:36.552Z,-1.15
2023-03-16T04:37:10.199Z,-1.17
2023-03-16T04:39:43.602Z,-1.19
2023-03-16T04:42:16.933Z,-1.20
2023-03-16T04:44:49.632Z,-1.22
2023-03-16T04:47:23.688Z,-1.24
2023-03-16T04:49:56.562Z,-1.25
2023-03-16T04:52:29.438Z,-1.26
2023-03-16T04:55:02.625Z,-1.28
2023-03-16T04:57:35.820Z,-1.28
2023-03-16T05:00:13.965Z,-1.25
2023-03-16T05:02:44.918Z,-1.24
2023-03-16T05:05:19.352Z,-1.24
2023-03-16T05:07:52.602Z,-1.24
2023-03-16T05:10:25.860Z,-1.22
2023-03-16T05:12:58.840Z,-1.23
2023-03-16T05:15:32.596Z,-1.22
2023-03-16T05:18:05.996Z,-1.22
2023-03-16T05:20:39.312Z,-1.23
2023-03-16T05:23:12.639Z,-1.23
2023-03-16T05:25:47.190Z,-1.25
2023-03-16T05:28:21.738Z,-1.26
2023-03-16T05:30:54.563Z,-1.27
2023-03-16T05:33:27.504Z,-1.27
2023-03-16T05:36:00.685Z,-1.27
2023-03-16T05:38:38.023Z,-1.26
2023-03-16T05:41:11.083Z,-1.26
2023-03-16T05:43:44.276Z,-1.27
2023-03-16T05:46:20.276Z,-1.28
2023-03-16T05:48:54.095Z,-1.27
2023-03-16T05:51:27.507Z,-1.26
2023-03-16T05:54:00.809Z,-1.25
2023-03-16T05:56:34.363Z,-1.22
2023-03-16T05:59:07.681Z,-1.20
2023-03-16T06:01:41.635Z,-1.19
2023-03-16T06:04:15.157Z,-1.14
2023-03-16T06:06:47.862Z,-1.12
2023-03-16T06:09:20.751Z,-1.08
2023-03-16T06:11:54.412Z,-1.06
2023-03-16T06:14:27.527Z,-1.02
2023-03-16T06:17:00.615Z,-1.00
2023-03-16T06:19:33.443Z,-0.97
2023-03-16T06:22:06.525Z,-0.93
2023-03-16T06:24:39.669Z,-0.90
2023-03-16T06:27:13.660Z,-0.85
2023-03-16T06:29:47.629Z,-0.79
2023-03-16T06:32:21.364Z,-0.73
2023-03-16T06:34:54.412Z,-0.68
2023-03-16T06:37:27.292Z,-0.60
2023-03-16T06:39:59.868Z,-0.53
2023-03-16T06:42:32.894Z,-0.43
2023-03-16T06:45:05.666Z,-0.34
2023-03-16T06:47:38.169Z,-0.24
2023-03-16T06:50:12.735Z,-0.14
2023-03-16T06:52:45.584Z,-0.03
2023-03-16T06:55:19.261Z,0.07
2023-03-16T06:57:52.552Z,0.18
2023-03-16T07:00:26.681Z,0.28
2023-03-16T07:03:00.505Z,0.37
2023-03-16T07:05:33.468Z,0.46
2023-03-16T07:08:06.459Z,0.55
2023-03-16T07:10:38.956Z,0.63
2023-03-16T07:13:12.166Z,0.71
2023-03-16T07:15:44.930Z,0.81
2023-03-16T07:18:17.729Z,0.91
2023-03-16T07:20:50.465Z,1.01
2023-03-16T07:23:25.016Z,1.11
2023-03-16T07:25:58.273Z,1.21
2023-03-16T07:28:32.739Z,1.30
2023-03-16T07:31:05.385Z,1.37
2023-03-16T07:33:38.583Z,1.43
2023-03-16T07:36:12.719Z,1.47
2023-03-16T07:38:45.014Z,1.52
2023-03-16T07:41:17.627Z,1.55
2023-03-16T07:43:50.532Z,1.60
2023-03-16T07:46:23.692Z,1.64
2023-03-16T07:48:56.911Z,1.68
2023-03-16T07:51:29.494Z,1.71
2023-03-16T07:54:02.825Z,1.75
2023-03-16T07:56:47.775Z,1.79
2023-03-16T07:59:21.964Z,1.84
2023-03-16T08:01:54.140Z,1.89
2023-03-16T08:04:26.829Z,1.94
2023-03-16T08:07:00.702Z,1.99
2023-03-16T08:09:36.231Z,2.05
2023-03-16T08:12:10.224Z,2.10
2023-03-16T08:14:43.037Z,2.16
2023-03-16T08:17:15.609Z,2.22
2023-03-16T08:19:47.818Z,2.27
2023-03-16T08:22:20.208Z,2.33
2023-03-16T08:24:52.551Z,2.39
2023-03-16T08:27:26.289Z,2.45
2023-03-16T08:30:05.512Z,2.52
2023-03-16T08:32:40.298Z,2.59
2023-03-16T08:35:14.145Z,2.67
2023-03-16T08:37:46.690Z,2.76
2023-03-16T08:40:23.114Z,2.86
2023-03-16T08:42:56.314Z,2.95
2023-03-16T08:45:29.132Z,3.03
2023-03-16T08:48:01.092Z,3.11
2023-03-16T08:50:32.840Z,3.18
2023-03-16T08:53:05.011Z,3.28
2023-03-16T08:55:38.220Z,3.37
2023-03-16T08:58:10.774Z,3.48
2023-03-16T09:00:45.436Z,3.56
2023-03-16T09:03:18.916Z,3.63
2023-03-16T09:05:53.156Z,3.68
2023-03-16T09:08:24.969Z,3.74
2023-03-16T09:11:06.107Z,3.81
2023-03-16T09:13:39.829Z,3.89
2023-03-16T09:16:14.072Z,3.96
2023-03-16T09:18:47.030Z,4.06
2023-03-16T09:21:20.002Z,4.15
2023-03-16T09:23:52.557Z,4.23
2023-03-16T09:26:25.105Z,4.30
2023-03-16T09:28:57.089Z,4.36
2023-03-16T09:31:29.384Z,4.42
2023-03-16T09:34:01.701Z,4.50
2023-03-16T09:36:34.654Z,4.57
2023-03-16T09:39:07.318Z,4.64
2023-03-16T09:41:47.917Z,4.70
2023-03-16T09:44:35.234Z,4.76
2023-03-16T09:47:12.540Z,4.85
2023-03-16T09:49:49.992Z,4.92
2023-03-16T09:52:34.626Z,4.98
2023-03-16T09:55:15.234Z,5.07
2023-03-16T09:57:49.412Z,5.13
2023-03-16T10:00:26.029Z,5.20
2023-03-16T10:03:12.366Z,5.25
2023-03-16T10:05:45.541Z,5.29
2023-03-16T10:08:24.715Z,5.33
2023-03-16T10:11:20.677Z,5.39
2023-03-16T10:13:56.937Z,5.45
2023-03-16T10:16:33.855Z,5.46
2023-03-16T10:19:12.031Z,5.48
2023-03-16T10:21:45.521Z,5.52
2023-03-16T10:24:36.157Z,5.57
2023-03-16T10:27:17.293Z,5.62
2023-03-16T10:29:50.421Z,5.69
2023-03-16T10:32:24.899Z,5.73
2023-03-16T10:35:02.665Z,5.78
2023-03-16T10:37:37.772Z,5.81
2023-03-16T10:40:13.505Z,5.84
2023-03-16T10:42:47.255Z,5.87
2023-03-16T10:45:31.950Z,5.90
2023-03-16T10:48:19.930Z,5.94
2023-03-16T10:50:58.200Z,5.97
2023-03-16T10:53:36.776Z,6.00
2023-03-16T10:56:20.714Z,6.04
2023-03-16T10:58:52.594Z,6.08
2023-03-16T11:01:28.145Z,6.12
2023-03-16T11:04:02.330Z,6.15
2023-03-16T11:06:34.689Z,6.18
2023-03-16T11:09:16.630Z,6.23
2023-03-16T11:11:52.263Z,6.26
2023-03-16T11:14:27.734Z,6.30
2023-03-16T11:17:05.946Z,6.36
2023-03-16T11:19:43.217Z,6.43
2023-03-16T11:22:17.910Z,6.51
2023-03-16T11:24:55.703Z,6.57
2023-03-16T11:27:32.515Z,6.64
2023-03-16T11:30:12.016Z,6.72
2023-03-16T11:32:47.758Z,6.78
2023-03-16T11:35:21.909Z,6.83
2023-03-16T11:38:10.176Z,6.90
2023-03-16T11:40:52.921Z,7.01
2023-03-16T11:43:47.605Z,7.10
2023-03-16T11:46:22.815Z,7.21
2023-03-16T11:49:12.405Z,7.30
2023-03-16T11:51:49.230Z,7.39
2023-03-16T11:54:41.737Z,7.49
2023-03-16T11:57:27.192Z,7.58
2023-03-16T12:00:10.469Z,7.65
2023-03-16T12:02:56.203Z,7.72
2023-03-16T12:05:43.865Z,7.74
2023-03-16T12:08:40.996Z,7.74
2023-03-16T12:11:16.712Z,7.76
2023-03-16T12:14:04.446Z,7.75
2023-03-16T12:16:49.082Z,7.74
2023-03-16T12:19:31.235Z,7.74
2023-03-16T12:22:17.011Z,7.73
2023-03-16T12:24:49.175Z,7.72
2023-03-16T12:27:25.420Z,7.71
2023-03-16T12:30:09.616Z,7.71
2023-03-16T12:32:48.640Z,7.71
2023-03-16T12:35:34.228Z,7.71
2023-03-16T12:38:19.002Z,7.71
2023-03-16T12:40:56.064Z,7.71
2023-03-16T12:43:45.750Z,7.73
2023-03-16T12:46:20.131Z,7.77
2023-03-16T12:48:55.297Z,7.83
2023-03-16T12:51:35.526Z,7.90
2023-03-16T12:54:07.544Z,7.96
2023-03-16T12:56:45.233Z,8.00
2023-03-16T12:59:21.070Z,8.04
2023-03-16T13:01:57.875Z,8.08
2023-03-16T13:04:34.980Z,8.12
2023-03-16T13:07:09.126Z,8.18
2023-03-16T13:09:45.617Z,8.23
2023-03-16T13:12:27.683Z,8.29
2023-03-16T13:14:59.206Z,8.35
2023-03-16T13:17:32.612Z,8.38
2023-03-16T13:20:30.697Z,8.42
2023-03-16T13:23:23.887Z,8.46
2023-03-16T13:26:17.209Z,8.49
2023-03-16T13:28:54.233Z,8.54
2023-03-16T13:31:29.951Z,8.60
2023-03-16T13:34:01.438Z,8.64
2023-03-16T13:36:33.930Z,8.65
2023-03-16T13:39:14.411Z,8.65
2023-03-16T13:41:55.171Z,8.62
2023-03-16T13:44:26.529Z,8.60
2023-03-16T13:46:57.346Z,8.57
2023-03-16T13:49:27.696Z,8.55
2023-03-16T13:51:58.049Z,8.54
2023-03-16T13:54:30.721Z,8.55
2023-03-16T13:57:07.178Z,8.58
2023-03-16T13:59:38.244Z,8.63
2023-03-16T14:02:20.916Z,8.67
2023-03-16T14:04:51.650Z,8.70
2023-03-16T14:07:24.624Z,8.73
2023-03-16T14:09:59.033Z,8.77
2023-03-16T14:12:29.830Z,8.80
2023-03-16T14:15:00.654Z,8.85
2023-03-16T14:17:31.905Z,8.90
2023-03-16T14:20:04.021Z,8.95
2023-03-16T14:22:38.057Z,9.01
2023-03-16T14:25:18.348Z,9.08
2023-03-16T14:27:49.025Z,9.15
2023-03-16T14:30:24.439Z,9.22
2023-03-16T14:33:00.487Z,9.26
2023-03-16T14:35:33.348Z,9.29
2023-03-16T14:38:29.568Z,9.28
2023-03-16T14:41:04.238Z,9.27
2023-03-16T14:43:38.187Z,9.27
2023-03-16T14:46:13.835Z,9.26
2023-03-16T14:48:45.712Z,9.26
2023-03-16T14:51:17.201Z,9.27
2023-03-16T14:53:47.652Z,9.27
2023-03-16T14:56:18.050Z,9.28
2023-03-16T14:58:48.866Z,9.30
2023-03-16T15:01:20.512Z,9.31
2023-03-16T15:03:50.938Z,9.33
2023-03-16T15:06:21.993Z,9.33
2023-03-16T15:08:52.332Z,9.31
2023-03-16T15:11:24.630Z,9.29
2023-03-16T15:14:04.036Z,9.26
2023-03-16T15:16:35.015Z,9.21
2023-03-16T15:19:06.168Z,9.16
2023-03-16T15:21:36.806Z,9.11
2023-03-16T15:24:10.240Z,9.07
2023-03-16T15:26:40.826Z,9.05
2023-03-16T15:29:14.473Z,9.03
2023-03-16T15:31:44.813Z,9.00
2023-03-16T15:34:16.406Z,8.99
2023-03-16T15:36:46.793Z,8.98
2023-03-16T15:39:25.752Z,8.97
2023-03-16T15:41:56.411Z,8.95
2023-03-16T15:44:27.133Z,8.94
2023-03-16T15:46:57.516Z,8.92
2023-03-16T15:49:30.236Z,8.92
2023-03-16T15:52:03.232Z,8.92
2023-03-16T15:54:35.940Z,8.91
2023-03-16T15:57:06.777Z,8.89
2023-03-16T15:59:38.763Z,8.88
2023-03-16T16:04:43.888Z,8.80
2023-03-16T16:07:15.671Z,8.76
2023-03-16T16:09:46.587Z,8.72
2023-03-16T16:12:18.688Z,8.68
2023-03-16T16:14:47.771Z,8.65
2023-03-16T16:17:36.487Z,8.62
2023-03-16T16:20:21.434Z,8.56
2023-03-16T16:22:52.991Z,8.53
2023-03-16T16:25:24.937Z,8.49
2023-03-16T16:27:56.260Z,8.43
2023-03-16T16:30:28.847Z,8.41
2023-03-16T16:32:59.837Z,8.37
2023-03-16T16:35:31.363Z,8.33
2023-03-16T16:38:02.407Z,8.28
2023-03-16T16:40:47.057Z,8.24
2023-03-16T16:43:36.503Z,8.21
2023-03-16T16:46:16.007Z,8.15
2023-03-16T16:48:50.096Z,8.10
2023-03-16T16:51:23.340Z,8.07
2023-03-16T16:53:55.025Z,8.03
2023-03-16T16:56:31.252Z,8.00
2023-03-16T16:59:14.943Z,7.95
2023-03-16T17:01:47.015Z,7.92
2023-03-16T17:04:20.170Z,7.88
2023-03-16T17:06:55.421Z,7.84
2023-03-16T17:09:27.830Z,7.80
2023-03-16T17:12:03.086Z,7.76
2023-03-16T17:14:34.382Z,7.72
2023-03-16T17:17:08.636Z,7.66
2023-03-16T17:19:40.341Z,7.64
2023-03-16T17:22:24.679Z,7.56
2023-03-16T17:24:57.742Z,7.56
2023-03-16T17:27:33.415Z,7.52
2023-03-16T17:30:06.017Z,7.48
2023-03-16T17:32:39.075Z,7.44
2023-03-16T17:35:17.900Z,7.42
2023-03-16T17:37:49.312Z,7.39
2023-03-16T17:40:21.413Z,7.36
2023-03-16T17:42:53.549Z,7.33
2023-03-16T17:45:26.084Z,7.31
2023-03-16T17:47:57.068Z,7.28
2023-03-16T17:50:29.660Z,7.25
2023-03-16T17:53:00.147Z,7.24
2023-03-16T17:55:30.447Z,7.21
2023-03-16T17:58:01.466Z,7.21
2023-03-16T18:00:34.158Z,7.19
2023-03-16T18:03:12.581Z,7.15
2023-03-16T18:05:43.731Z,7.13
2023-03-16T18:08:18.429Z,7.10
2023-03-16T18:10:53.589Z,7.06
2023-03-16T18:13:28.863Z,7.03
2023-03-16T18:15:59.867Z,6.99
2023-03-16T18:18:35.038Z,6.95
2023-03-16T18:21:06.216Z,6.91
2023-03-16T18:23:38.114Z,6.87
2023-03-16T18:26:08.919Z,6.83
2023-03-16T18:28:39.862Z,6.79
2023-03-16T18:31:21.967Z,6.76
2023-03-16T18:33:54.912Z,6.72
2023-03-16T18:36:29.351Z,6.68
2023-03-16T18:39:02.152Z,6.64
2023-03-16T18:41:34.473Z,6.61
2023-03-16T18:44:14.189Z,6.58
2023-03-16T18:46:46.300Z,6.56
2023-03-16T18:49:20.987Z,6.54
2023-03-16T18:51:53.486Z,6.52
2023-03-16T18:54:27.080Z,6.48
2023-03-16T18:56:58.699Z,6.47
2023-03-16T18:59:29.571Z,6.46
2023-03-16T19:02:00.583Z,6.44
2023-03-16T19:04:32.857Z,6.42
2023-03-16T19:07:05.418Z,6.41
2023-03-16T19:09:36.297Z,6.39
2023-03-16T19:12:07.309Z,6.36
2023-03-16T19:14:37.857Z,6.33
2023-03-16T19:17:08.187Z,6.31
2023-03-16T19:19:38.812Z,6.30
2023-03-16T19:22:16.347Z,6.27
2023-03-16T19:24:51.333Z,6.24
2023-03-16T19:27:25.856Z,6.21
2023-03-16T19:29:56.660Z,6.18
2023-03-16T19:32:27.309Z,6.15
2023-03-16T19:34:57.940Z,6.11
2023-03-16T19:37:30.050Z,6.08
2023-03-16T19:40:01.573Z,6.05
2023-03-16T19:42:35.584Z,6.02
2023-03-16T19:45:09.461Z,5.98
2023-03-16T19:47:39.916Z,5.94
2023-03-16T19:50:16.767Z,5.91
2023-03-16T19:52:47.815Z,5.88
2023-03-16T19:55:21.308Z,5.86
2023-03-16T19:57:58.408Z,5.83
2023-03-16T20:00:30.174Z,5.81
2023-03-16T20:03:01.486Z,5.77
2023-03-16T20:05:33.644Z,5.74
2023-03-16T20:08:23.141Z,5.71
2023-03-16T20:10:55.428Z,5.68
2023-03-16T20:13:26.350Z,5.66
2023-03-16T20:15:57.227Z,5.63
2023-03-16T20:18:28.813Z,5.58
2023-03-16T20:20:59.120Z,5.57
2023-03-16T20:23:31.229Z,5.53
2023-03-16T20:26:03.163Z,5.50
2023-03-16T20:28:38.036Z,5.47
2023-03-16T20:31:17.253Z,5.43
2023-03-16T20:33:48.419Z,5.42
2023-03-16T20:36:19.734Z,5.40
2023-03-16T20:38:50.719Z,5.39
2023-03-16T20:41:26.700Z,5.39
2023-03-16T20:43:59.620Z,5.37
2023-03-16T20:46:32.354Z,5.36
2023-03-16T20:49:03.595Z,5.36
2023-03-16T20:51:33.915Z,5.37
2023-03-16T20:54:04.407Z,5.39
2023-03-16T20:56:34.893Z,5.40
2023-03-16T20:59:05.436Z,5.42
2023-03-16T21:01:38.048Z,5.44
2023-03-16T21:04:14.749Z,5.44
2023-03-16T21:06:47.518Z,5.43
2023-03-16T21:09:18.903Z,5.43
2023-03-16T21:11:50.049Z,5.41
2023-03-16T21:14:24.213Z,5.42
2023-03-16T21:16:56.405Z,5.40
2023-03-16T21:19:26.722Z,5.39
2023-03-16T21:21:57.096Z,5.38
2023-03-16T21:24:27.777Z,5.37
2023-03-16T21:26:58.207Z,5.35
2023-03-16T21:29:28.907Z,5.36
2023-03-16T21:31:59.299Z,5.35
2023-03-16T21:34:35.912Z,5.34
2023-03-16T21:37:16.035Z,5.31
2023-03-16T21:39:47.809Z,5.32
2023-03-16T21:42:18.213Z,5.31
2023-03-16T21:44:48.487Z,5.31
2023-03-16T21:47:26.609Z,5.33
2023-03-16T21:49:59.136Z,5.34
2023-03-16T21:52:31.074Z,5.34
2023-03-16T21:55:02.026Z,5.35
2023-03-16T21:57:32.932Z,5.35
2023-03-16T22:00:03.976Z,5.35
2023-03-16T22:02:36.739Z,5.34
2023-03-16T22:05:25.806Z,5.32
2023-03-16T22:07:56.548Z,5.30
2023-03-16T22:10:28.506Z,5.29
2023-03-16T22:12:59.421Z,5.27
2023-03-16T22:15:29.813Z,5.26
2023-03-16T22:18:14.754Z,5.24
2023-03-16T22:20:46.486Z,5.23
2023-03-16T22:23:30.434Z,5.22
2023-03-16T22:26:01.865Z,5.21
2023-03-16T22:28:33.814Z,5.19
2023-03-16T22:31:05.961Z,5.18
2023-03-16T22:33:38.603Z,5.16
2023-03-16T22:36:12.242Z,5.15
2023-03-16T22:38:43.530Z,5.13
2023-03-16T22:41:17.701Z,5.12
2023-03-16T22:43:48.502Z,5.09
2023-03-16T22:46:23.625Z,5.07
2023-03-16T22:48:55.303Z,5.06
2023-03-16T22:51:29.609Z,5.04
2023-03-16T22:54:02.467Z,5.02
2023-03-16T22:56:33.629Z,5.02
2023-03-16T22:59:07.510Z,5.00
2023-03-16T23:01:41.088Z,5.00
2023-03-16T23:04:16.579Z,4.98
2023-03-16T23:06:48.237Z,4.96
2023-03-16T23:09:20.338Z,4.97
2023-03-16T23:11:53.994Z,4.96
2023-03-16T23:14:27.905Z,4.96
2023-03-16T23:16:58.577Z,4.95
2023-03-16T23:19:31.837Z,4.94
2023-03-16T23:22:05.125Z,4.93
2023-03-16T23:24:36.052Z,4.92
2023-03-16T23:27:08.146Z,4.91
2023-03-16T23:29:38.787Z,4.91
2023-03-16T23:32:10.263Z,4.90
2023-03-16T23:34:41.382Z,4.91
2023-03-16T23:37:11.981Z,4.90
2023-03-16T23:39:42.363Z,4.90
2023-03-16T23:42:13.480Z,4.90
2023-03-16T23:44:45.288Z,4.91
2023-03-16T23:47:15.751Z,4.91
2023-03-16T23:49:46.503Z,4.91
2023-03-16T23:52:17.650Z,4.92
2023-03-16T23:54:50.075Z,4.91
2023-03-16T23:57:20.958Z,4.91
2023-03-16T23:59:51.274Z,4.91
